Time;durP1;ratioP1;P1;durP2;ratioP2;P2;SDS_P1;SDS_P2;PMS_P1;PMS_P2;Temp;Humidity;BMP_temperature;BMP_pressure;BME280_temperature;BME280_humidity;BME280_pressure;Samples;Min_cycle;Max_cycle;Signal;HPM_P1;HPM_P2
2019/06/09 00:00:25;;;;;;;6.5;4;;;;;;;11.27;78.39746;967.1553;;;;
2019/06/09 00:02:43;;;;;;;7.3;4.2;;;;;;;11.27;78.58301;967.1809;;;;
2019/06/09 00:05:08;;;;;;;6.4;3.8;;;;;;;11.26;78.87012;967.1689;;;;
2019/06/09 00:07:34;;;;;;;5.9;3.9;;;;;;;11.22;79.22168;967.1894;;;;
2019/06/09 00:09:59;;;;;;;5.8;3.7;;;;;;;11.21;79.40527;967.1221;;;;
2019/06/09 00:12:26;;;;;;;5.4;3.9;;;;;;;11.19;79.80469;967.1241;;;;
2019/06/09 00:14:51;;;;;;;7.1;3.8;;;;;;;11.16;79.5459;967.0848;;;;
2019/06/09 00:17:19;;;;;;;7.8;3.9;;;;;;;11.09;79.52051;967.0697;;;;
2019/06/09 00:19:44;;;;;;;8.2;4.2;;;;;;;11.09;79.55566;967.0912;;;;
2019/06/09 00:22:09;;;;;;;6.9;4;;;;;;;11.07;80.11816;967.1017;;;;
2019/06/09 00:24:34;;;;;;;6.4;3.7;;;;;;;11.03;80.16797;967.1525;;;;
2019/06/09 00:26:59;;;;;;;5.9;4;;;;;;;11.01;80.42969;967.1289;;;;
2019/06/09 00:29:25;;;;;;;6.8;4.2;;;;;;;10.92;79.96289;967.0736;;;;
2019/06/09 00:31:56;;;;;;;6.1;4;;;;;;;10.96;82.06152;967.0436;;;;
2019/06/09 00:34:16;;;;;;;7.1;4.4;;;;;;;10.96;83.5752;967.022;;;;
2019/06/09 00:36:41;;;;;;;6.7;4;;;;;;;10.96;84.20996;967.0692;;;;
2019/06/09 00:39:12;;;;;;;5.7;4;;;;;;;10.92;84.44434;967.06;;;;
2019/06/09 00:43:57;;;;;;;6.2;4;;;;;;;10.89;84.54297;967.2128;;;;
2019/06/09 00:46:22;;;;;;;6.3;4.3;;;;;;;10.86;84.1543;967.0875;;;;
2019/06/09 00:48:48;;;;;;;7.8;4.6;;;;;;;10.78;84.33691;967.1203;;;;
2019/06/09 00:51:13;;;;;;;5.1;4.3;;;;;;;10.74;84.21289;967.1239;;;;
2019/06/09 00:53:39;;;;;;;7.1;4.5;;;;;;;10.76;83.95117;967.1015;;;;
2019/06/09 00:56:04;;;;;;;6.9;4.7;;;;;;;10.76;83.00391;967.1442;;;;
2019/06/09 00:58:31;;;;;;;6.6;4.6;;;;;;;10.79;81.92383;967.158;;;;
2019/06/09 01:00:57;;;;;;;6.2;4.2;;;;;;;10.76;82.36914;967.1699;;;;
2019/06/09 01:03:24;;;;;;;7;4.4;;;;;;;10.74;82.10059;967.103;;;;
2019/06/09 01:06:01;;;;;;;7.8;4.4;;;;;;;10.77;81.57422;967.1259;;;;
2019/06/09 01:08:46;;;;;;;8.5;4.3;;;;;;;10.76;81.48047;967.1143;;;;
2019/06/09 01:11:12;;;;;;;8.1;4.7;;;;;;;10.75;81.52441;967.0975;;;;
2019/06/09 01:13:37;;;;;;;7.8;4.5;;;;;;;10.69;81.49023;967.0737;;;;
2019/06/09 01:16:02;;;;;;;7.1;4.7;;;;;;;10.69;81.52637;967.0178;;;;
2019/06/09 01:18:27;;;;;;;8.3;4.9;;;;;;;10.71;81.74707;967.0762;;;;
2019/06/09 01:20:59;;;;;;;8.8;4.9;;;;;;;10.68;82.20605;967.1641;;;;
2019/06/09 01:23:32;;;;;;;9.1;4.7;;;;;;;10.65;82.54297;967.1333;;;;
2019/06/09 01:25:58;;;;;;;7.1;4.6;;;;;;;10.62;81.91699;967.1353;;;;
2019/06/09 01:28:36;;;;;;;6;4.5;;;;;;;10.64;82.42773;967.1164;;;;
2019/06/09 01:31:06;;;;;;;6.7;4.6;;;;;;;10.61;82.35352;967.1361;;;;
2019/06/09 01:33:31;;;;;;;7.9;4.7;;;;;;;10.59;82.20996;967.1127;;;;
2019/06/09 01:35:57;;;;;;;7.4;4.7;;;;;;;10.63;81.74316;966.9732;;;;
2019/06/09 01:38:23;;;;;;;7.8;4.6;;;;;;;10.57;81.98535;966.97;;;;
2019/06/09 01:40:48;;;;;;;7.5;4.6;;;;;;;10.51;82.33105;967.0398;;;;
2019/06/09 01:43:15;;;;;;;5.9;4.3;;;;;;;10.5;82.29688;967.0494;;;;
2019/06/09 01:45:40;;;;;;;8.2;4.5;;;;;;;10.45;82.27539;967.0408;;;;
2019/06/09 01:48:05;;;;;;;7.5;4.8;;;;;;;10.5;81.83496;967.0486;;;;
2019/06/09 01:50:30;;;;;;;8.7;4.7;;;;;;;10.5;81.61621;967.0229;;;;
2019/06/09 01:52:55;;;;;;;7.1;4.8;;;;;;;10.54;81.47266;966.973;;;;
2019/06/09 01:55:20;;;;;;;7.2;5;;;;;;;10.54;82.13086;967.0282;;;;
2019/06/09 01:57:48;;;;;;;9.4;5.3;;;;;;;10.47;83.13379;966.9793;;;;
2019/06/09 02:00:24;;;;;;;6.5;4.8;;;;;;;10.51;82.89844;967.0262;;;;
2019/06/09 02:02:50;;;;;;;7;5.1;;;;;;;10.47;83.05273;966.9617;;;;
2019/06/09 02:05:17;;;;;;;6.6;4.6;;;;;;;10.5;82.19336;967.0109;;;;
2019/06/09 02:07:43;;;;;;;7.3;4.7;;;;;;;10.51;82.29688;966.8734;;;;
2019/06/09 02:10:25;;;;;;;8.2;4.6;;;;;;;10.62;81.62695;966.884;;;;
2019/06/09 02:12:57;;;;;;;8.4;5.2;;;;;;;10.52;82.01367;966.9783;;;;
2019/06/09 02:15:24;;;;;;;9.2;5.6;;;;;;;10.45;82.32129;966.9216;;;;
2019/06/09 02:17:49;;;;;;;7.4;5.3;;;;;;;10.5;82.2041;966.9678;;;;
2019/06/09 02:20:16;;;;;;;8.5;5.5;;;;;;;10.47;82.36133;966.9281;;;;
2019/06/09 02:22:45;;;;;;;8;5.1;;;;;;;10.48;82.03809;966.9481;;;;
2019/06/09 02:25:12;;;;;;;8.9;5;;;;;;;10.54;81.11523;966.8962;;;;
2019/06/09 02:27:37;;;;;;;7.7;4.8;;;;;;;10.56;81.16504;966.9451;;;;
2019/06/09 02:30:02;;;;;;;8;5.3;;;;;;;10.56;81.0498;966.8811;;;;
2019/06/09 02:32:29;;;;;;;8.3;5.5;;;;;;;10.52;81.53906;966.8383;;;;
2019/06/09 02:35:08;;;;;;;7.3;5.2;;;;;;;10.52;81.43652;966.8463;;;;
2019/06/09 02:37:33;;;;;;;7;5.1;;;;;;;10.59;80.64258;966.8736;;;;
2019/06/09 02:39:58;;;;;;;8.5;5.6;;;;;;;10.58;80.46582;966.8408;;;;
2019/06/09 02:42:25;;;;;;;8.9;5.4;;;;;;;10.58;80.47754;966.8452;;;;
2019/06/09 02:44:50;;;;;;;7.6;5.7;;;;;;;10.56;80.57813;966.9019;;;;
2019/06/09 02:47:15;;;;;;;9;5.7;;;;;;;10.56;80.48535;966.8339;;;;
2019/06/09 02:49:45;;;;;;;8.3;5.7;;;;;;;10.56;80.51855;966.9796;;;;
2019/06/09 02:52:11;;;;;;;7.9;5.8;;;;;;;10.55;80.53027;966.8906;;;;
2019/06/09 02:54:36;;;;;;;8.2;5.2;;;;;;;10.5;81.09668;966.947;;;;
2019/06/09 02:57:04;;;;;;;8.1;5.5;;;;;;;10.49;80.96875;966.9474;;;;
2019/06/09 02:59:30;;;;;;;9.5;5.6;;;;;;;10.45;81.06543;966.8697;;;;
2019/06/09 03:01:57;;;;;;;7.9;5.5;;;;;;;10.35;81.41406;966.8579;;;;
2019/06/09 03:04:22;;;;;;;7.3;5.3;;;;;;;10.34;81.6084;966.7986;;;;
2019/06/09 03:06:50;;;;;;;7.3;5.7;;;;;;;10.32;82.04199;966.7714;;;;
2019/06/09 03:09:15;;;;;;;8;5.8;;;;;;;10.31;82.06543;966.7378;;;;
2019/06/09 03:11:44;;;;;;;9.1;5.7;;;;;;;10.31;82.00586;966.687;;;;
2019/06/09 03:14:09;;;;;;;11.1;5.7;;;;;;;10.38;81.64063;966.6505;;;;
2019/06/09 03:16:34;;;;;;;8.6;6.1;;;;;;;10.38;81.66309;966.6544;;;;
2019/06/09 03:18:59;;;;;;;9.1;5.7;;;;;;;10.4;81.65527;966.6356;;;;
2019/06/09 03:21:24;;;;;;;10.3;5.8;;;;;;;10.42;81.42773;966.6556;;;;
2019/06/09 03:23:49;;;;;;;9.9;5.5;;;;;;;10.42;81.3125;966.6853;;;;
2019/06/09 03:26:14;;;;;;;8.3;5.5;;;;;;;10.45;80.93652;966.7249;;;;
2019/06/09 03:28:39;;;;;;;8.5;5.7;;;;;;;10.44;80.87793;966.6917;;;;
2019/06/09 03:31:08;;;;;;;9.4;5.9;;;;;;;10.44;80.93652;966.7469;;;;
2019/06/09 03:33:33;;;;;;;9.6;5.6;;;;;;;10.41;81.2168;966.678;;;;
2019/06/09 03:36:03;;;;;;;10.5;6;;;;;;;10.41;81.07031;966.6133;;;;
2019/06/09 03:38:28;;;;;;;8;5.4;;;;;;;10.39;81.60742;966.6113;;;;
2019/06/09 03:41:00;;;;;;;7.8;5.4;;;;;;;10.43;81.11621;966.6717;;;;
2019/06/09 03:43:30;;;;;;;10.7;5.6;;;;;;;10.47;80.50391;966.6722;;;;
2019/06/09 03:45:58;;;;;;;9.3;5.1;;;;;;;10.5;80.39355;966.7286;;;;
2019/06/09 03:48:24;;;;;;;8;4.9;;;;;;;10.58;80.05078;966.6956;;;;
2019/06/09 03:50:49;;;;;;;7.5;5;;;;;;;10.59;79.85742;966.6431;;;;
2019/06/09 03:53:15;;;;;;;8.3;5.3;;;;;;;10.64;79.86426;966.746;;;;
2019/06/09 03:55:40;;;;;;;8.8;5.1;;;;;;;10.68;79.63184;966.6689;;;;
2019/06/09 03:58:05;;;;;;;7.7;4.5;;;;;;;10.76;79.41406;966.7046;;;;
2019/06/09 04:02:39;;;;;;;6.4;4.8;;;;;;;10.83;78.72266;966.6678;;;;
2019/06/09 04:05:04;;;;;;;8.1;4.7;;;;;;;10.95;78.18945;966.6994;;;;
2019/06/09 04:07:30;;;;;;;7;4.8;;;;;;;10.94;78.53418;966.7514;;;;
2019/06/09 04:09:56;;;;;;;6.7;4.8;;;;;;;10.97;78.56348;966.7563;;;;
2019/06/09 04:12:21;;;;;;;6.1;4.7;;;;;;;10.98;78.21777;966.7475;;;;
2019/06/09 04:14:46;;;;;;;9.1;5.1;;;;;;;11.03;78.21582;966.7474;;;;
2019/06/09 04:17:11;;;;;;;8.3;5.1;;;;;;;11.12;77.97754;966.7899;;;;
2019/06/09 04:19:36;;;;;;;8.3;5.4;;;;;;;11.3;76.51855;966.6655;;;;
2019/06/09 04:22:01;;;;;;;6.6;4.7;;;;;;;11.45;75.31934;966.7275;;;;
2019/06/09 04:24:26;;;;;;;7.5;5;;;;;;;11.44;76.15039;966.7034;;;;
2019/06/09 04:26:51;;;;;;;9.3;5.2;;;;;;;11.41;76.09961;966.6975;;;;
2019/06/09 04:29:16;;;;;;;7.7;4.9;;;;;;;11.55;75.4541;966.7008;;;;
2019/06/09 04:31:42;;;;;;;7.7;4.8;;;;;;;11.58;75.14648;966.6426;;;;
2019/06/09 04:34:07;;;;;;;8.9;5.1;;;;;;;11.65;75.48242;966.6528;;;;
2019/06/09 04:36:33;;;;;;;6.9;5;;;;;;;11.78;74.14063;966.6609;;;;
2019/06/09 04:38:58;;;;;;;8.1;5.1;;;;;;;11.73;74.29297;966.6061;;;;
2019/06/09 04:41:23;;;;;;;5.7;4.9;;;;;;;11.92;73.58496;966.6731;;;;
2019/06/09 04:43:48;;;;;;;7.3;4.9;;;;;;;11.95;73.5791;966.6613;;;;
2019/06/09 04:46:18;;;;;;;6.9;5.2;;;;;;;12.08;72.15137;966.6913;;;;
2019/06/09 04:48:43;;;;;;;8.2;5.1;;;;;;;12.15;72.35059;966.6541;;;;
2019/06/09 04:51:09;;;;;;;9.2;5.2;;;;;;;12.25;71.50977;966.5927;;;;
2019/06/09 04:53:34;;;;;;;8;5;;;;;;;12.22;72.34863;966.5662;;;;
2019/06/09 04:55:59;;;;;;;7.9;5;;;;;;;12.4;71.44141;966.5861;;;;
2019/06/09 04:58:26;;;;;;;7.3;4.9;;;;;;;12.33;72.11328;966.5465;;;;
2019/06/09 05:00:52;;;;;;;6.8;5.1;;;;;;;12.42;71.46777;966.5291;;;;
2019/06/09 05:03:17;;;;;;;7.1;4.7;;;;;;;12.44;71.2041;966.4713;;;;
2019/06/09 05:05:42;;;;;;;6.4;5.1;;;;;;;12.46;70.99805;966.4306;;;;
2019/06/09 05:08:07;;;;;;;6;4.4;;;;;;;12.62;70.36523;966.448;;;;
2019/06/09 05:10:32;;;;;;;7.9;4.8;;;;;;;12.7;70.58691;966.5466;;;;
2019/06/09 05:12:58;;;;;;;7.8;4.8;;;;;;;12.74;70.38379;966.5298;;;;
2019/06/09 05:15:23;;;;;;;11;4.6;;;;;;;12.9;69.69043;966.5005;;;;
2019/06/09 05:17:48;;;;;;;7;4.9;;;;;;;13.09;69.41895;966.5623;;;;
2019/06/09 05:20:15;;;;;;;6.9;5;;;;;;;13.22;68.10352;966.5062;;;;
2019/06/09 05:22:40;;;;;;;6.3;4.6;;;;;;;13.08;68.37207;966.5167;;;;
2019/06/09 05:25:07;;;;;;;7.6;4.4;;;;;;;13.39;67.97949;966.4494;;;;
2019/06/09 05:27:32;;;;;;;8.5;4.5;;;;;;;13.35;67.95215;966.4406;;;;
2019/06/09 05:29:57;;;;;;;5.5;4.4;;;;;;;13.47;67.49414;966.4751;;;;
2019/06/09 05:32:22;;;;;;;8.2;4.6;;;;;;;13.6;67.3623;966.3672;;;;
2019/06/09 05:34:47;;;;;;;6.4;4.5;;;;;;;13.59;67.6416;966.3295;;;;
2019/06/09 05:37:22;;;;;;;8;4.4;;;;;;;13.82;67.10645;966.3563;;;;
2019/06/09 05:40:01;;;;;;;6.4;4.4;;;;;;;13.99;66.92285;966.3856;;;;
2019/06/09 05:42:34;;;;;;;6.3;4.4;;;;;;;14.16;66.61133;966.371;;;;
2019/06/09 05:45:08;;;;;;;6.9;4.5;;;;;;;14.32;65.91406;966.3922;;;;
2019/06/09 05:47:33;;;;;;;7.1;4.1;;;;;;;14.37;66.74805;966.3871;;;;
2019/06/09 05:49:58;;;;;;;7.5;3.8;;;;;;;14.43;66.0127;966.3456;;;;
2019/06/09 05:52:24;;;;;;;6.1;3.8;;;;;;;14.63;65.05176;966.4102;;;;
2019/06/09 05:54:55;;;;;;;6.4;4.1;;;;;;;14.69;64.63184;966.3855;;;;
2019/06/09 05:57:23;;;;;;;7.7;4;;;;;;;14.92;64.02246;966.3736;;;;
2019/06/09 05:59:48;;;;;;;5.4;3.6;;;;;;;15.07;63.26367;966.2662;;;;
2019/06/09 06:02:13;;;;;;;7.6;3.8;;;;;;;15.12;63.62109;966.2175;;;;
2019/06/09 06:04:40;;;;;;;5.6;3.6;;;;;;;15.37;62.67773;966.168;;;;
2019/06/09 06:07:10;;;;;;;5.4;3.6;;;;;;;15.41;62.74219;966.1627;;;;
2019/06/09 06:09:35;;;;;;;5.7;3.6;;;;;;;15.41;62.9873;966.1805;;;;
2019/06/09 06:12:01;;;;;;;6.3;3.5;;;;;;;15.47;62.29492;966.225;;;;
2019/06/09 06:14:26;;;;;;;4.2;3.1;;;;;;;15.65;62.40137;966.2001;;;;
2019/06/09 06:17:11;;;;;;;6.1;3.5;;;;;;;15.81;61.79395;966.2292;;;;
2019/06/09 06:19:40;;;;;;;5.4;3.5;;;;;;;16.07;61.80762;966.2204;;;;
2019/06/09 06:22:05;;;;;;;6.2;3.6;;;;;;;16.02;61.97656;966.1265;;;;
2019/06/09 06:24:29;;;;;;;7.3;3.8;;;;;;;16.18;61.54297;966.0818;;;;
2019/06/09 06:26:55;;;;;;;6.1;3.4;;;;;;;16.42;60.85059;966.0715;;;;
2019/06/09 06:29:25;;;;;;;5.9;3.2;;;;;;;16.68;60.14941;965.954;;;;
2019/06/09 06:31:50;;;;;;;4.7;3.2;;;;;;;16.89;59.54785;965.8937;;;;
2019/06/09 06:34:15;;;;;;;5.8;3;;;;;;;17.02;59.27051;965.8789;;;;
2019/06/09 06:36:40;;;;;;;5.4;3.2;;;;;;;17.18;59.19824;965.9111;;;;
2019/06/09 06:39:06;;;;;;;5.5;3.1;;;;;;;17.38;57.10449;965.9253;;;;
2019/06/09 06:41:31;;;;;;;6.4;3.1;;;;;;;17.4;57.54199;965.9008;;;;
2019/06/09 06:43:56;;;;;;;5.8;3.2;;;;;;;17.74;58.27832;965.9836;;;;
2019/06/09 06:46:21;;;;;;;4.2;3.2;;;;;;;17.99;56.85547;965.9571;;;;
2019/06/09 06:48:47;;;;;;;5.3;3.2;;;;;;;18.07;56.35059;966.0023;;;;
2019/06/09 06:51:12;;;;;;;4.4;3.1;;;;;;;18.41;55.7002;965.9336;;;;
2019/06/09 06:53:37;;;;;;;5.7;2.9;;;;;;;18.57;54.9668;965.8324;;;;
2019/06/09 06:56:02;;;;;;;4.6;3;;;;;;;18.78;53.88867;965.8222;;;;
2019/06/09 06:58:45;;;;;;;5.4;3.1;;;;;;;18.69;54.08984;965.834;;;;
2019/06/09 07:01:20;;;;;;;4.6;2.7;;;;;;;18.93;53.88281;965.7903;;;;
2019/06/09 07:03:47;;;;;;;3.5;2.7;;;;;;;18.77;53.93457;965.8582;;;;
2019/06/09 07:06:12;;;;;;;5.4;3;;;;;;;18.43;55.7373;965.8501;;;;
2019/06/09 07:08:37;;;;;;;4.3;2.9;;;;;;;18.24;56.21973;965.8476;;;;
2019/06/09 07:11:14;;;;;;;4.6;2.8;;;;;;;18.5;54.8291;965.7933;;;;
2019/06/09 07:13:40;;;;;;;4.2;2.7;;;;;;;18.41;54.80762;965.7521;;;;
2019/06/09 07:16:05;;;;;;;5.7;2.6;;;;;;;18.53;53.35352;965.7455;;;;
2019/06/09 07:18:32;;;;;;;3.6;2.4;;;;;;;18.56;53.7207;965.6041;;;;
2019/06/09 07:20:57;;;;;;;4;2.3;;;;;;;18.67;53.79297;965.659;;;;
2019/06/09 07:23:23;;;;;;;5.5;2.5;;;;;;;19.01;53.24609;965.5769;;;;
2019/06/09 07:25:50;;;;;;;3.7;2.4;;;;;;;19.07;52.61816;965.5687;;;;
2019/06/09 07:28:24;;;;;;;3.3;2.3;;;;;;;19.41;51.71777;965.5923;;;;
2019/06/09 07:30:49;;;;;;;5.9;2.3;;;;;;;19.4;49.58398;965.5336;;;;
2019/06/09 07:33:17;;;;;;;3.4;2.1;;;;;;;19.28;49.98242;965.4199;;;;
2019/06/09 07:35:50;;;;;;;5.4;2.2;;;;;;;19.45;49.61328;965.5145;;;;
2019/06/09 07:38:08;;;;;;;3.5;2.2;;;;;;;19.69;49.7002;965.4431;;;;
2019/06/09 07:40:33;;;;;;;5.9;2.4;;;;;;;20.01;47.88379;965.4092;;;;
2019/06/09 07:42:58;;;;;;;3.1;2.1;;;;;;;19.96;48.05469;965.3862;;;;
2019/06/09 07:45:23;;;;;;;5.3;2.4;;;;;;;19.88;48.56445;965.4058;;;;
2019/06/09 07:47:48;;;;;;;5.6;2.4;;;;;;;20.06;47.7832;965.394;;;;
2019/06/09 07:50:13;;;;;;;4;2.5;;;;;;;20.25;47.5918;965.476;;;;
2019/06/09 07:52:38;;;;;;;5;2;;;;;;;20.19;46.80566;965.3292;;;;
2019/06/09 07:55:08;;;;;;;3.1;2;;;;;;;20.58;46.89453;965.2802;;;;
2019/06/09 07:57:33;;;;;;;4.9;2.1;;;;;;;20.42;48.63672;965.2891;;;;
2019/06/09 07:59:59;;;;;;;4.5;2.3;;;;;;;19.96;46.60547;965.2813;;;;
2019/06/09 08:02:24;;;;;;;3.5;2.1;;;;;;;20.33;46.92773;965.1836;;;;
2019/06/09 08:04:49;;;;;;;3.1;2;;;;;;;20.48;45.9043;965.1469;;;;
2019/06/09 08:07:23;;;;;;;4.4;2.3;;;;;;;20.61;44.40625;965.168;;;;
2019/06/09 08:09:48;;;;;;;3.8;2.3;;;;;;;20.6;45.82227;965.0911;;;;
2019/06/09 08:12:26;;;;;;;3.6;2.3;;;;;;;21.08;45.49414;965.1204;;;;
2019/06/09 08:14:51;;;;;;;3.9;2.4;;;;;;;20.91;44.2002;965.1387;;;;
2019/06/09 08:17:16;;;;;;;3.5;2.2;;;;;;;21.02;44.28223;965.0676;;;;
2019/06/09 08:19:41;;;;;;;6;2.4;;;;;;;21.01;47.02246;965.0908;;;;
2019/06/09 08:22:06;;;;;;;5.6;2.3;;;;;;;21.09;44.49121;965.0179;;;;
2019/06/09 08:24:48;;;;;;;3.7;2.2;;;;;;;21.13;45.31055;964.9175;;;;
2019/06/09 08:27:14;;;;;;;3.8;2.4;;;;;;;21.14;44.75488;964.9595;;;;
2019/06/09 08:29:44;;;;;;;4.9;2.3;;;;;;;21.33;46.09961;964.8806;;;;
2019/06/09 08:32:13;;;;;;;3.6;1.9;;;;;;;21.46;45.35547;964.9495;;;;
2019/06/09 08:34:38;;;;;;;4.4;2.3;;;;;;;21.46;42.63477;964.9625;;;;
2019/06/09 08:37:03;;;;;;;4.6;2;;;;;;;21.34;42.49414;964.9749;;;;
2019/06/09 08:39:45;;;;;;;3.4;2;;;;;;;21.34;44.66992;965.0831;;;;
2019/06/09 08:42:12;;;;;;;4.6;2.1;;;;;;;21.77;42.15625;965.0911;;;;
2019/06/09 08:44:37;;;;;;;3.8;2;;;;;;;21.65;41.89551;965.1526;;;;
2019/06/09 08:47:02;;;;;;;4.3;2.2;;;;;;;21.85;41.13281;965.1936;;;;
2019/06/09 08:49:27;;;;;;;4.9;2.3;;;;;;;22.09;42.49512;965.1064;;;;
2019/06/09 08:51:53;;;;;;;4.6;2.5;;;;;;;22.06;42.94043;965.168;;;;
2019/06/09 08:54:17;;;;;;;5.1;2.5;;;;;;;22.28;43.2002;965.0228;;;;
2019/06/09 08:56:44;;;;;;;4;2.6;;;;;;;22;43.25488;965.1236;;;;
2019/06/09 08:59:09;;;;;;;4.1;2.2;;;;;;;22.16;43.17578;965.1788;;;;
2019/06/09 09:01:35;;;;;;;3.3;2;;;;;;;22.28;42.60645;965.2667;;;;
2019/06/09 09:04:01;;;;;;;3.2;2.3;;;;;;;22.15;43.42383;965.2594;;;;
2019/06/09 09:06:28;;;;;;;5.9;2.5;;;;;;;22.54;43.08301;965.2238;;;;
2019/06/09 09:08:57;;;;;;;4.2;2.5;;;;;;;22.51;44.0166;965.2764;;;;
2019/06/09 09:11:22;;;;;;;5.4;2.5;;;;;;;22.5;42.72266;965.2395;;;;
2019/06/09 09:13:56;;;;;;;4;2.4;;;;;;;22.55;41.31641;965.1965;;;;
2019/06/09 09:16:22;;;;;;;4.6;2.2;;;;;;;22.53;41.8125;965.1475;;;;
2019/06/09 09:18:47;;;;;;;5.1;2.8;;;;;;;22.87;41.46582;965.084;;;;
2019/06/09 09:21:12;;;;;;;3.6;2.5;;;;;;;23.24;42.61621;965.1908;;;;
2019/06/09 09:23:37;;;;;;;5.1;2.5;;;;;;;23.17;42.09863;965.223;;;;
2019/06/09 09:26:02;;;;;;;3.7;2.5;;;;;;;23.46;42.68457;965.1886;;;;
2019/06/09 09:28:27;;;;;;;5;2.6;;;;;;;23.43;42.99023;965.2849;;;;
2019/06/09 09:30:54;;;;;;;4.2;2.5;;;;;;;22.94;43.98828;965.231;;;;
2019/06/09 09:33:19;;;;;;;3.6;2.4;;;;;;;23.37;41.82129;965.2236;;;;
2019/06/09 09:35:44;;;;;;;3.8;2.4;;;;;;;23.89;42.05957;965.212;;;;
2019/06/09 09:38:09;;;;;;;4;2.3;;;;;;;23.54;43.63086;965.1682;;;;
2019/06/09 09:40:34;;;;;;;3.9;2.5;;;;;;;23.86;41.24902;965.0848;;;;
2019/06/09 09:42:59;;;;;;;3.8;2.6;;;;;;;23.53;42.40625;965.0295;;;;
2019/06/09 09:45:25;;;;;;;5.7;2.6;;;;;;;23.65;42.72656;964.9291;;;;
2019/06/09 09:47:50;;;;;;;6.7;2.9;;;;;;;23.88;44.15234;964.8812;;;;
2019/06/09 09:50:15;;;;;;;6.3;3;;;;;;;23.37;42.65137;964.8275;;;;
2019/06/09 09:52:42;;;;;;;4.4;2.9;;;;;;;23.7;42.30371;964.7653;;;;
2019/06/09 09:55:07;;;;;;;4.9;2.9;;;;;;;24;42.99707;964.7291;;;;
2019/06/09 09:57:32;;;;;;;4.4;2.7;;;;;;;24.57;42.4209;964.6983;;;;
2019/06/09 09:59:59;;;;;;;4.4;2.8;;;;;;;24.5;41.09277;964.8387;;;;
2019/06/09 10:02:24;;;;;;;6.1;2.9;;;;;;;24.28;41.8584;964.8033;;;;
2019/06/09 10:04:53;;;;;;;5.4;2.8;;;;;;;24.44;42.43262;964.8312;;;;
2019/06/09 10:07:19;;;;;;;4.3;3;;;;;;;23.52;42.14453;964.7523;;;;
2019/06/09 10:09:45;;;;;;;7.3;2.8;;;;;;;24.22;41.76953;964.6638;;;;
2019/06/09 10:12:10;;;;;;;6.5;2.8;;;;;;;24.35;43.74707;964.6437;;;;
2019/06/09 10:14:35;;;;;;;4.9;2.8;;;;;;;24.54;42.43066;964.6548;;;;
2019/06/09 10:17:14;;;;;;;5.4;3;;;;;;;23.75;43.33105;964.6839;;;;
2019/06/09 10:19:38;;;;;;;5.3;2.8;;;;;;;24.98;41.61328;964.6509;;;;
2019/06/09 10:22:04;;;;;;;5.9;2.8;;;;;;;24.83;40.00293;964.6224;;;;
2019/06/09 10:24:29;;;;;;;4.1;2.6;;;;;;;24.5;41.89063;964.6345;;;;
2019/06/09 10:26:54;;;;;;;7.3;3;;;;;;;24.93;41.59668;964.59;;;;
2019/06/09 10:29:20;;;;;;;5.4;2.7;;;;;;;25.13;40.21973;964.5798;;;;
2019/06/09 10:31:45;;;;;;;6.5;3;;;;;;;25.4;40.54395;964.4969;;;;
2019/06/09 10:34:12;;;;;;;5.8;2.8;;;;;;;25;41.4248;964.5425;;;;
2019/06/09 10:36:37;;;;;;;5.4;2.7;;;;;;;25.45;41.07227;964.4686;;;;
2019/06/09 10:39:03;;;;;;;5.9;2.9;;;;;;;25.31;41.7041;964.3935;;;;
2019/06/09 10:41:28;;;;;;;6.2;3.2;;;;;;;24.54;41.13281;964.3264;;;;
2019/06/09 10:43:52;;;;;;;6.2;2.8;;;;;;;25.13;41.54395;964.4188;;;;
2019/06/09 10:46:18;;;;;;;5.6;3.1;;;;;;;25.19;43.06543;964.3123;;;;
2019/06/09 10:48:44;;;;;;;6.2;3.4;;;;;;;25.25;41.15039;964.3339;;;;
2019/06/09 10:51:08;;;;;;;4.6;3.1;;;;;;;24.92;43.88477;964.3029;;;;
2019/06/09 10:53:33;;;;;;;4.3;3;;;;;;;25.08;43.34082;964.2597;;;;
2019/06/09 10:55:58;;;;;;;6;2.8;;;;;;;25.48;41.1709;964.2711;;;;
2019/06/09 10:58:23;;;;;;;5.2;2.9;;;;;;;25.02;42.26172;964.2299;;;;
2019/06/09 11:00:48;;;;;;;4;3;;;;;;;24.94;42.18262;964.1331;;;;
2019/06/09 11:03:14;;;;;;;3.8;2.9;;;;;;;25.27;41.78516;964.1769;;;;
2019/06/09 11:05:39;;;;;;;6;3.2;;;;;;;24.85;41.86328;964.0873;;;;
2019/06/09 11:08:04;;;;;;;5.6;3;;;;;;;25.14;42.20117;964.0939;;;;
2019/06/09 11:10:29;;;;;;;5.5;3.1;;;;;;;24.35;42.03125;964.0078;;;;
2019/06/09 11:12:54;;;;;;;4.8;3.1;;;;;;;24.61;41.9248;964.0105;;;;
2019/06/09 11:15:20;;;;;;;5;3.2;;;;;;;24.65;43.7168;963.9522;;;;
2019/06/09 11:17:47;;;;;;;5.9;3.6;;;;;;;24.52;43.81055;963.9111;;;;
2019/06/09 11:20:12;;;;;;;4.5;3;;;;;;;24.59;44.09277;963.9305;;;;
2019/06/09 11:22:45;;;;;;;6.3;3.2;;;;;;;24.91;42.97852;963.8851;;;;
2019/06/09 11:25:11;;;;;;;4.4;2.7;;;;;;;24.52;43.62012;963.8508;;;;
2019/06/09 11:27:36;;;;;;;4.5;3;;;;;;;24.57;42.42188;963.8646;;;;
2019/06/09 11:30:01;;;;;;;5.7;3.2;;;;;;;24.69;44.89941;963.8324;;;;
2019/06/09 11:32:27;;;;;;;6.7;3.1;;;;;;;25.13;44.68164;963.7809;;;;
2019/06/09 11:34:52;;;;;;;6.2;3.2;;;;;;;26.09;40.60547;963.7622;;;;
2019/06/09 11:37:19;;;;;;;8.5;3.4;;;;;;;26.77;40.18945;963.6713;;;;
2019/06/09 11:39:44;;;;;;;4.8;3.1;;;;;;;26.52;38.8623;963.6395;;;;
2019/06/09 11:42:09;;;;;;;5.3;2.8;;;;;;;27.4;37.83594;963.632;;;;
2019/06/09 11:44:34;;;;;;;4.5;2.9;;;;;;;26.13;38.55273;963.5801;;;;
2019/06/09 11:46:59;;;;;;;3.5;2.7;;;;;;;25.04;40.35645;963.6721;;;;
2019/06/09 11:49:25;;;;;;;5.8;3;;;;;;;25.96;41.87305;963.6037;;;;
2019/06/09 11:52:09;;;;;;;5.3;3.2;;;;;;;25.76;40.07422;963.5965;;;;
2019/06/09 11:54:34;;;;;;;8.1;3;;;;;;;26.59;37.34863;963.6006;;;;
2019/06/09 11:56:59;;;;;;;4.9;3.2;;;;;;;26.9;38.5957;963.597;;;;
2019/06/09 11:59:26;;;;;;;6.1;3.5;;;;;;;26.68;38.88672;963.5302;;;;
2019/06/09 12:01:51;;;;;;;4.7;3.1;;;;;;;26.9;40.2959;963.5589;;;;
2019/06/09 12:04:20;;;;;;;5.6;3.3;;;;;;;26.12;39.6875;963.5381;;;;
2019/06/09 12:06:45;;;;;;;4.9;3.2;;;;;;;26.69;40.73242;963.5407;;;;
2019/06/09 12:09:10;;;;;;;5.9;3.4;;;;;;;26.09;39.7334;963.4998;;;;
2019/06/09 12:11:35;;;;;;;4.7;3.4;;;;;;;25.99;40.53711;963.5109;;;;
2019/06/09 12:14:01;;;;;;;5.1;3.3;;;;;;;26.18;40.42188;963.5425;;;;
2019/06/09 12:16:26;;;;;;;6.1;3.4;;;;;;;26.87;39.15527;963.5508;;;;
2019/06/09 12:18:52;;;;;;;5.5;3.6;;;;;;;26.48;37.66211;963.5226;;;;
2019/06/09 12:21:18;;;;;;;5.5;3.4;;;;;;;26.56;38.93652;963.4756;;;;
2019/06/09 12:23:43;;;;;;;5.2;3.5;;;;;;;26.86;39.51367;963.4694;;;;
2019/06/09 12:26:20;;;;;;;5.3;3.4;;;;;;;27.13;37.10645;963.4931;;;;
2019/06/09 12:28:45;;;;;;;5.6;4;;;;;;;26.47;37.0625;963.4553;;;;
2019/06/09 12:31:10;;;;;;;4.7;3.5;;;;;;;27.43;39.24023;963.5086;;;;
2019/06/09 12:33:38;;;;;;;5.4;3.8;;;;;;;26.7;39.48828;963.4386;;;;
2019/06/09 12:36:03;;;;;;;6.7;3.8;;;;;;;26.52;37.05566;963.495;;;;
2019/06/09 12:38:29;;;;;;;7.4;3.6;;;;;;;25.44;39.98535;963.4161;;;;
2019/06/09 12:40:53;;;;;;;4.9;3.3;;;;;;;25.55;39.21973;963.4083;;;;
2019/06/09 12:43:19;;;;;;;6.2;3.4;;;;;;;26.21;38.89355;963.4323;;;;
2019/06/09 12:45:44;;;;;;;5.4;3.5;;;;;;;26.02;38.89063;963.4716;;;;
2019/06/09 12:48:09;;;;;;;6.4;3.6;;;;;;;27.2;36.67969;963.483;;;;
2019/06/09 12:50:34;;;;;;;5.4;3.4;;;;;;;28.29;36.30078;963.4281;;;;
2019/06/09 12:52:59;;;;;;;4.4;3.2;;;;;;;28.81;35.53613;963.4127;;;;
2019/06/09 12:55:24;;;;;;;6.9;3.5;;;;;;;26.9;39.0498;963.4447;;;;
2019/06/09 12:57:49;;;;;;;5.9;3.6;;;;;;;25.29;40.7002;963.4579;;;;
2019/06/09 13:00:14;;;;;;;5.4;3.4;;;;;;;25.9;41.08984;963.4783;;;;
2019/06/09 13:02:41;;;;;;;4.6;3.4;;;;;;;25.73;41.52832;963.423;;;;
2019/06/09 13:05:06;;;;;;;6.6;3.5;;;;;;;26.11;38.5166;963.4211;;;;
2019/06/09 13:07:33;;;;;;;4.7;3.3;;;;;;;26.13;39.79492;963.4673;;;;
2019/06/09 13:09:58;;;;;;;5.9;3.7;;;;;;;26.14;38.7334;963.4437;;;;
2019/06/09 13:12:24;;;;;;;5.9;3.5;;;;;;;26.59;39.32324;963.4745;;;;
2019/06/09 13:14:49;;;;;;;5.8;3.6;;;;;;;27.81;35.09766;963.4229;;;;
2019/06/09 13:17:18;;;;;;;5.1;3.3;;;;;;;27.71;40.44043;963.4617;;;;
2019/06/09 13:19:43;;;;;;;4.3;3.1;;;;;;;28.42;34.23145;963.4412;;;;
2019/06/09 13:22:11;;;;;;;5.2;3.2;;;;;;;29.28;33.40625;963.4705;;;;
2019/06/09 13:24:36;;;;;;;4.1;3;;;;;;;29.14;35.21387;963.4646;;;;
2019/06/09 13:27:02;;;;;;;5.8;3.5;;;;;;;26.78;42.08105;963.4377;;;;
2019/06/09 13:29:27;;;;;;;5.4;3.4;;;;;;;25.5;42.03223;963.4337;;;;
2019/06/09 13:31:52;;;;;;;7.2;3.5;;;;;;;24.82;42.79102;963.4716;;;;
2019/06/09 13:34:19;;;;;;;6;3.6;;;;;;;24.6;43.22266;963.4673;;;;
2019/06/09 13:36:44;;;;;;;6.8;3.6;;;;;;;24.89;46.11133;963.4778;;;;
2019/06/09 13:39:09;;;;;;;4.7;3.4;;;;;;;25.36;42.81934;963.355;;;;
2019/06/09 13:41:39;;;;;;;6;3.4;;;;;;;25.28;40.98535;963.3292;;;;
2019/06/09 13:44:04;;;;;;;6.5;3.6;;;;;;;24.72;42.92383;963.2609;;;;
2019/06/09 13:46:29;;;;;;;5.8;3.2;;;;;;;25.7;41.15527;963.2444;;;;
2019/06/09 13:48:54;;;;;;;5.8;3.2;;;;;;;26.13;39.6875;963.1788;;;;
2019/06/09 13:51:22;;;;;;;6.8;3.3;;;;;;;24.84;43.16211;963.1721;;;;
2019/06/09 13:53:48;;;;;;;6.2;3.5;;;;;;;24.85;46.53711;963.2534;;;;
2019/06/09 13:56:14;;;;;;;6.9;3.5;;;;;;;24.92;43.14648;963.2763;;;;
2019/06/09 13:58:39;;;;;;;6.4;3.4;;;;;;;25.76;43.14355;963.3251;;;;
2019/06/09 14:01:25;;;;;;;6.5;3.8;;;;;;;25.36;44.21484;963.2764;;;;
2019/06/09 14:03:49;;;;;;;8.1;3.6;;;;;;;25.49;46.71094;963.3262;;;;
2019/06/09 14:06:14;;;;;;;5.5;3.2;;;;;;;25.21;46.09668;963.3233;;;;
2019/06/09 14:08:42;;;;;;;6.3;3.3;;;;;;;24.94;44.51953;963.2427;;;;
2019/06/09 14:11:07;;;;;;;5.7;3.2;;;;;;;24.45;45.30371;963.15;;;;
2019/06/09 14:13:32;;;;;;;8.6;3.4;;;;;;;24.34;46.20996;963.1846;;;;
2019/06/09 14:15:57;;;;;;;5.5;3.4;;;;;;;24.18;45.18164;963.1445;;;;
2019/06/09 14:18:22;;;;;;;5.6;3.2;;;;;;;24.24;47.54395;963.144;;;;
2019/06/09 14:20:47;;;;;;;5.4;3.4;;;;;;;24.96;42.36328;963.1314;;;;
2019/06/09 14:23:14;;;;;;;6.9;3.5;;;;;;;24.56;46.32715;963.1422;;;;
2019/06/09 14:25:39;;;;;;;7.4;3.3;;;;;;;24.38;44.28516;963.1227;;;;